sensor_id;sensor_type;location;lat;lon;timestamp;P1;durP1;ratioP1;P2;durP2;ratioP2
12597;SDS011;6364;53.590;9.956;2023-10-31T00:00:04;25.90;;;14.15;;
12597;SDS011;6364;53.590;9.956;2023-10-31T00:02:30;28.13;;;15.23;;
12597;SDS011;6364;53.590;9.956;2023-10-31T00:04:56;30.23;;;15.57;;
12597;SDS011;6364;53.590;9.956;2023-10-31T00:07:22;33.55;;;15.18;;
12597;SDS011;6364;53.590;9.956;2023-10-31T00:09:47;32.30;;;15.98;;
12597;SDS011;6364;53.590;9.956;2023-10-31T00:12:12;28.42;;;15.93;;
12597;SDS011;6364;53.590;9.956;2023-10-31T00:14:38;35.17;;;15.82;;
12597;SDS011;6364;53.590;9.956;2023-10-31T00:17:04;31.83;;;15.98;;
12597;SDS011;6364;53.590;9.956;2023-10-31T00:19:29;23.77;;;16.30;;
12597;SDS011;6364;53.590;9.956;2023-10-31T00:21:55;29.13;;;16.20;;
12597;SDS011;6364;53.590;9.956;2023-10-31T00:24:20;28.02;;;15.80;;
12597;SDS011;6364;53.590;9.956;2023-10-31T00:26:45;22.83;;;14.45;;
12597;SDS011;6364;53.590;9.956;2023-10-31T00:29:11;21.40;;;12.80;;
12597;SDS011;6364;53.590;9.956;2023-10-31T00:31:36;23.42;;;13.43;;
12597;SDS011;6364;53.590;9.956;2023-10-31T00:34:06;23.17;;;12.77;;
12597;SDS011;6364;53.590;9.956;2023-10-31T00:36:31;21.95;;;13.57;;
12597;SDS011;6364;53.590;9.956;2023-10-31T00:38:57;24.88;;;13.25;;
12597;SDS011;6364;53.590;9.956;2023-10-31T00:41:22;24.35;;;14.50;;
12597;SDS011;6364;53.590;9.956;2023-10-31T00:43:47;25.40;;;13.95;;
12597;SDS011;6364;53.590;9.956;2023-10-31T00:46:13;23.60;;;14.27;;
12597;SDS011;6364;53.590;9.956;2023-10-31T00:48:38;26.10;;;14.90;;
12597;SDS011;6364;53.590;9.956;2023-10-31T00:51:03;26.10;;;15.02;;
12597;SDS011;6364;53.590;9.956;2023-10-31T00:53:29;22.33;;;15.27;;
12597;SDS011;6364;53.590;9.956;2023-10-31T00:55:54;28.88;;;16.80;;
12597;SDS011;6364;53.590;9.956;2023-10-31T00:58:20;27.95;;;16.20;;
12597;SDS011;6364;53.590;9.956;2023-10-31T01:00:45;27.48;;;16.90;;
12597;SDS011;6364;53.590;9.956;2023-10-31T01:03:10;31.42;;;18.63;;
12597;SDS011;6364;53.590;9.956;2023-10-31T01:05:37;30.40;;;19.17;;
12597;SDS011;6364;53.590;9.956;2023-10-31T01:08:02;30.73;;;19.30;;
12597;SDS011;6364;53.590;9.956;2023-10-31T01:10:28;32.03;;;20.55;;
12597;SDS011;6364;53.590;9.956;2023-10-31T01:12:53;30.25;;;19.42;;
12597;SDS011;6364;53.590;9.956;2023-10-31T01:15:19;33.47;;;20.85;;
12597;SDS011;6364;53.590;9.956;2023-10-31T01:17:45;31.17;;;22.35;;
12597;SDS011;6364;53.590;9.956;2023-10-31T01:20:11;33.38;;;22.67;;
12597;SDS011;6364;53.590;9.956;2023-10-31T01:22:37;29.58;;;20.98;;
12597;SDS011;6364;53.590;9.956;2023-10-31T01:25:02;34.47;;;23.15;;
12597;SDS011;6364;53.590;9.956;2023-10-31T01:27:28;36.72;;;22.85;;
12597;SDS011;6364;53.590;9.956;2023-10-31T01:29:53;31.58;;;21.50;;
12597;SDS011;6364;53.590;9.956;2023-10-31T01:32:19;31.80;;;21.95;;
12597;SDS011;6364;53.590;9.956;2023-10-31T01:34:44;35.45;;;21.90;;
12597;SDS011;6364;53.590;9.956;2023-10-31T01:37:09;29.90;;;21.27;;
12597;SDS011;6364;53.590;9.956;2023-10-31T01:39:38;35.15;;;21.52;;
12597;SDS011;6364;53.590;9.956;2023-10-31T01:42:03;32.53;;;21.30;;
12597;SDS011;6364;53.590;9.956;2023-10-31T01:44:28;34.13;;;21.48;;
12597;SDS011;6364;53.590;9.956;2023-10-31T01:46:54;33.90;;;20.67;;
12597;SDS011;6364;53.590;9.956;2023-10-31T01:49:20;44.67;;;21.17;;
12597;SDS011;6364;53.590;9.956;2023-10-31T01:51:45;32.60;;;20.15;;
12597;SDS011;6364;53.590;9.956;2023-10-31T01:54:11;33.90;;;21.52;;
12597;SDS011;6364;53.590;9.956;2023-10-31T01:56:38;31.17;;;20.38;;
12597;SDS011;6364;53.590;9.956;2023-10-31T01:59:04;28.08;;;19.55;;
12597;SDS011;6364;53.590;9.956;2023-10-31T02:01:31;27.02;;;18.83;;
12597;SDS011;6364;53.590;9.956;2023-10-31T02:03:57;29.75;;;19.17;;
12597;SDS011;6364;53.590;9.956;2023-10-31T02:06:23;31.02;;;17.70;;
12597;SDS011;6364;53.590;9.956;2023-10-31T02:08:49;29.45;;;18.20;;
12597;SDS011;6364;53.590;9.956;2023-10-31T02:11:14;30.88;;;17.92;;
12597;SDS011;6364;53.590;9.956;2023-10-31T02:13:40;32.28;;;19.17;;
12597;SDS011;6364;53.590;9.956;2023-10-31T02:16:05;32.97;;;17.90;;
12597;SDS011;6364;53.590;9.956;2023-10-31T02:18:31;35.22;;;18.55;;
12597;SDS011;6364;53.590;9.956;2023-10-31T02:20:57;22.20;;;16.20;;
12597;SDS011;6364;53.590;9.956;2023-10-31T02:23:23;26.60;;;15.82;;
12597;SDS011;6364;53.590;9.956;2023-10-31T02:25:48;26.23;;;16.02;;
12597;SDS011;6364;53.590;9.956;2023-10-31T02:28:14;21.67;;;14.60;;
12597;SDS011;6364;53.590;9.956;2023-10-31T02:30:40;21.73;;;14.10;;
12597;SDS011;6364;53.590;9.956;2023-10-31T02:33:05;24.20;;;14.88;;
12597;SDS011;6364;53.590;9.956;2023-10-31T02:35:31;20.92;;;12.90;;
12597;SDS011;6364;53.590;9.956;2023-10-31T02:37:56;24.00;;;14.30;;
12597;SDS011;6364;53.590;9.956;2023-10-31T02:40:22;20.15;;;13.70;;
12597;SDS011;6364;53.590;9.956;2023-10-31T02:42:47;26.75;;;14.73;;
12597;SDS011;6364;53.590;9.956;2023-10-31T02:45:13;22.25;;;14.60;;
12597;SDS011;6364;53.590;9.956;2023-10-31T02:47:38;26.80;;;14.98;;
12597;SDS011;6364;53.590;9.956;2023-10-31T02:50:03;22.20;;;14.57;;
12597;SDS011;6364;53.590;9.956;2023-10-31T02:52:29;22.90;;;14.65;;
12597;SDS011;6364;53.590;9.956;2023-10-31T02:54:55;22.85;;;13.80;;
12597;SDS011;6364;53.590;9.956;2023-10-31T02:57:21;27.52;;;13.90;;
12597;SDS011;6364;53.590;9.956;2023-10-31T02:59:46;28.88;;;14.75;;
12597;SDS011;6364;53.590;9.956;2023-10-31T03:02:12;27.27;;;14.30;;
12597;SDS011;6364;53.590;9.956;2023-10-31T03:04:37;27.52;;;14.45;;
12597;SDS011;6364;53.590;9.956;2023-10-31T03:07:03;25.80;;;15.68;;
12597;SDS011;6364;53.590;9.956;2023-10-31T03:09:28;28.27;;;15.38;;
12597;SDS011;6364;53.590;9.956;2023-10-31T03:11:54;27.27;;;14.73;;
12597;SDS011;6364;53.590;9.956;2023-10-31T03:14:19;26.85;;;15.32;;
12597;SDS011;6364;53.590;9.956;2023-10-31T03:16:44;23.77;;;14.48;;
12597;SDS011;6364;53.590;9.956;2023-10-31T03:19:10;23.30;;;15.10;;
12597;SDS011;6364;53.590;9.956;2023-10-31T03:21:35;27.88;;;14.93;;
12597;SDS011;6364;53.590;9.956;2023-10-31T03:24:00;24.42;;;14.90;;
12597;SDS011;6364;53.590;9.956;2023-10-31T03:26:26;24.17;;;14.60;;
12597;SDS011;6364;53.590;9.956;2023-10-31T03:28:51;22.92;;;15.30;;
12597;SDS011;6364;53.590;9.956;2023-10-31T03:31:21;23.60;;;14.80;;
12597;SDS011;6364;53.590;9.956;2023-10-31T03:33:47;22.30;;;14.70;;
12597;SDS011;6364;53.590;9.956;2023-10-31T03:36:12;25.85;;;15.13;;
12597;SDS011;6364;53.590;9.956;2023-10-31T03:38:38;26.95;;;15.35;;
12597;SDS011;6364;53.590;9.956;2023-10-31T03:41:03;24.95;;;14.48;;
12597;SDS011;6364;53.590;9.956;2023-10-31T03:43:29;24.40;;;14.95;;
12597;SDS011;6364;53.590;9.956;2023-10-31T03:45:54;25.40;;;14.95;;
12597;SDS011;6364;53.590;9.956;2023-10-31T03:48:19;26.00;;;15.02;;
12597;SDS011;6364;53.590;9.956;2023-10-31T03:50:45;27.38;;;16.05;;
12597;SDS011;6364;53.590;9.956;2023-10-31T03:53:10;28.42;;;16.42;;
12597;SDS011;6364;53.590;9.956;2023-10-31T03:55:35;25.08;;;15.98;;
12597;SDS011;6364;53.590;9.956;2023-10-31T03:58:01;24.83;;;16.85;;
12597;SDS011;6364;53.590;9.956;2023-10-31T04:00:26;33.65;;;17.73;;
12597;SDS011;6364;53.590;9.956;2023-10-31T04:02:52;30.52;;;16.77;;
12597;SDS011;6364;53.590;9.956;2023-10-31T04:05:17;28.85;;;17.33;;
12597;SDS011;6364;53.590;9.956;2023-10-31T04:07:43;28.77;;;18.05;;
12597;SDS011;6364;53.590;9.956;2023-10-31T04:10:09;29.33;;;18.98;;
12597;SDS011;6364;53.590;9.956;2023-10-31T04:12:34;30.25;;;17.25;;
12597;SDS011;6364;53.590;9.956;2023-10-31T04:15:00;31.90;;;18.10;;
12597;SDS011;6364;53.590;9.956;2023-10-31T04:17:25;31.58;;;17.92;;
12597;SDS011;6364;53.590;9.956;2023-10-31T04:19:50;31.73;;;19.20;;
12597;SDS011;6364;53.590;9.956;2023-10-31T04:22:16;31.58;;;17.85;;
12597;SDS011;6364;53.590;9.956;2023-10-31T04:24:41;30.60;;;18.27;;
12597;SDS011;6364;53.590;9.956;2023-10-31T04:27:07;33.20;;;18.65;;
12597;SDS011;6364;53.590;9.956;2023-10-31T04:29:32;34.10;;;17.52;;
12597;SDS011;6364;53.590;9.956;2023-10-31T04:31:57;27.10;;;17.45;;
12597;SDS011;6364;53.590;9.956;2023-10-31T04:34:23;29.55;;;17.63;;
12597;SDS011;6364;53.590;9.956;2023-10-31T04:36:48;33.15;;;17.42;;
12597;SDS011;6364;53.590;9.956;2023-10-31T04:39:14;27.58;;;15.85;;
12597;SDS011;6364;53.590;9.956;2023-10-31T04:41:42;26.27;;;16.13;;
12597;SDS011;6364;53.590;9.956;2023-10-31T04:44:07;29.55;;;16.10;;
12597;SDS011;6364;53.590;9.956;2023-10-31T04:46:33;28.50;;;17.30;;
12597;SDS011;6364;53.590;9.956;2023-10-31T04:48:58;28.65;;;17.00;;
12597;SDS011;6364;53.590;9.956;2023-10-31T04:51:24;31.38;;;17.75;;
12597;SDS011;6364;53.590;9.956;2023-10-31T04:53:49;31.40;;;17.60;;
12597;SDS011;6364;53.590;9.956;2023-10-31T04:56:15;30.70;;;19.23;;
12597;SDS011;6364;53.590;9.956;2023-10-31T04:58:41;30.75;;;18.55;;
12597;SDS011;6364;53.590;9.956;2023-10-31T05:01:08;29.77;;;18.17;;
12597;SDS011;6364;53.590;9.956;2023-10-31T05:03:36;30.02;;;18.42;;
12597;SDS011;6364;53.590;9.956;2023-10-31T05:06:01;31.30;;;18.15;;
12597;SDS011;6364;53.590;9.956;2023-10-31T05:08:28;31.20;;;18.13;;
12597;SDS011;6364;53.590;9.956;2023-10-31T05:10:54;29.90;;;17.50;;
12597;SDS011;6364;53.590;9.956;2023-10-31T05:13:19;34.80;;;18.27;;
12597;SDS011;6364;53.590;9.956;2023-10-31T05:15:45;36.50;;;19.33;;
12597;SDS011;6364;53.590;9.956;2023-10-31T05:18:10;39.85;;;19.15;;
12597;SDS011;6364;53.590;9.956;2023-10-31T05:20:36;34.65;;;18.23;;
12597;SDS011;6364;53.590;9.956;2023-10-31T05:23:01;35.50;;;18.52;;
12597;SDS011;6364;53.590;9.956;2023-10-31T05:25:26;37.08;;;18.85;;
12597;SDS011;6364;53.590;9.956;2023-10-31T05:27:52;41.58;;;20.15;;
12597;SDS011;6364;53.590;9.956;2023-10-31T05:30:17;38.38;;;18.33;;
12597;SDS011;6364;53.590;9.956;2023-10-31T05:32:43;38.63;;;20.33;;
12597;SDS011;6364;53.590;9.956;2023-10-31T05:35:09;35.63;;;19.05;;
12597;SDS011;6364;53.590;9.956;2023-10-31T05:37:35;40.15;;;19.50;;
12597;SDS011;6364;53.590;9.956;2023-10-31T05:40:00;40.50;;;19.60;;
12597;SDS011;6364;53.590;9.956;2023-10-31T05:42:26;35.53;;;18.27;;
12597;SDS011;6364;53.590;9.956;2023-10-31T05:44:52;40.92;;;20.73;;
12597;SDS011;6364;53.590;9.956;2023-10-31T05:47:18;41.70;;;21.88;;
12597;SDS011;6364;53.590;9.956;2023-10-31T05:49:43;46.13;;;20.83;;
12597;SDS011;6364;53.590;9.956;2023-10-31T05:52:09;48.28;;;21.73;;
12597;SDS011;6364;53.590;9.956;2023-10-31T05:54:35;45.25;;;21.55;;
12597;SDS011;6364;53.590;9.956;2023-10-31T05:57:00;51.03;;;21.27;;
12597;SDS011;6364;53.590;9.956;2023-10-31T05:59:26;47.45;;;21.42;;
12597;SDS011;6364;53.590;9.956;2023-10-31T06:01:51;55.13;;;22.67;;
12597;SDS011;6364;53.590;9.956;2023-10-31T06:04:16;55.00;;;23.85;;
12597;SDS011;6364;53.590;9.956;2023-10-31T06:06:42;53.72;;;22.98;;
12597;SDS011;6364;53.590;9.956;2023-10-31T06:09:07;54.80;;;23.40;;
12597;SDS011;6364;53.590;9.956;2023-10-31T06:11:35;48.53;;;23.63;;
12597;SDS011;6364;53.590;9.956;2023-10-31T06:14:00;58.17;;;24.38;;
12597;SDS011;6364;53.590;9.956;2023-10-31T06:16:26;50.55;;;23.00;;
12597;SDS011;6364;53.590;9.956;2023-10-31T06:18:51;52.22;;;23.50;;
12597;SDS011;6364;53.590;9.956;2023-10-31T06:21:16;64.25;;;22.70;;
12597;SDS011;6364;53.590;9.956;2023-10-31T06:23:42;56.17;;;22.92;;
12597;SDS011;6364;53.590;9.956;2023-10-31T06:26:10;51.35;;;22.83;;
12597;SDS011;6364;53.590;9.956;2023-10-31T06:28:36;51.67;;;22.13;;
12597;SDS011;6364;53.590;9.956;2023-10-31T06:31:02;60.58;;;23.08;;
12597;SDS011;6364;53.590;9.956;2023-10-31T06:33:28;58.17;;;21.48;;
12597;SDS011;6364;53.590;9.956;2023-10-31T06:35:53;50.15;;;21.90;;
12597;SDS011;6364;53.590;9.956;2023-10-31T06:38:19;50.63;;;22.33;;
12597;SDS011;6364;53.590;9.956;2023-10-31T06:40:45;51.20;;;21.80;;
12597;SDS011;6364;53.590;9.956;2023-10-31T06:43:10;46.47;;;21.15;;
12597;SDS011;6364;53.590;9.956;2023-10-31T06:45:37;50.42;;;21.17;;
12597;SDS011;6364;53.590;9.956;2023-10-31T06:48:02;45.05;;;20.10;;
12597;SDS011;6364;53.590;9.956;2023-10-31T06:50:28;44.70;;;20.30;;
12597;SDS011;6364;53.590;9.956;2023-10-31T06:52:54;41.15;;;19.23;;
12597;SDS011;6364;53.590;9.956;2023-10-31T06:55:19;46.40;;;19.67;;
12597;SDS011;6364;53.590;9.956;2023-10-31T06:57:44;33.40;;;17.35;;
12597;SDS011;6364;53.590;9.956;2023-10-31T07:00:10;41.28;;;18.48;;
12597;SDS011;6364;53.590;9.956;2023-10-31T07:02:36;38.25;;;18.17;;
12597;SDS011;6364;53.590;9.956;2023-10-31T07:05:02;44.40;;;17.25;;
12597;SDS011;6364;53.590;9.956;2023-10-31T07:07:28;36.97;;;16.23;;
12597;SDS011;6364;53.590;9.956;2023-10-31T07:09:54;35.30;;;14.52;;
12597;SDS011;6364;53.590;9.956;2023-10-31T07:12:19;36.88;;;13.75;;
12597;SDS011;6364;53.590;9.956;2023-10-31T07:14:45;29.63;;;13.30;;
12597;SDS011;6364;53.590;9.956;2023-10-31T07:17:10;21.13;;;9.43;;
12597;SDS011;6364;53.590;9.956;2023-10-31T07:19:35;17.92;;;8.48;;
12597;SDS011;6364;53.590;9.956;2023-10-31T07:22:01;15.68;;;8.35;;
12597;SDS011;6364;53.590;9.956;2023-10-31T07:24:27;15.68;;;9.07;;
12597;SDS011;6364;53.590;9.956;2023-10-31T07:26:53;23.15;;;9.50;;
12597;SDS011;6364;53.590;9.956;2023-10-31T07:29:19;20.05;;;10.20;;
12597;SDS011;6364;53.590;9.956;2023-10-31T07:31:44;18.95;;;10.63;;
12597;SDS011;6364;53.590;9.956;2023-10-31T07:34:10;29.25;;;13.07;;
12597;SDS011;6364;53.590;9.956;2023-10-31T07:36:36;35.78;;;17.00;;
12597;SDS011;6364;53.590;9.956;2023-10-31T07:39:02;38.22;;;18.10;;
12597;SDS011;6364;53.590;9.956;2023-10-31T07:41:28;39.88;;;19.90;;
12597;SDS011;6364;53.590;9.956;2023-10-31T07:43:54;49.40;;;21.85;;
12597;SDS011;6364;53.590;9.956;2023-10-31T07:46:19;48.00;;;24.38;;
12597;SDS011;6364;53.590;9.956;2023-10-31T07:48:45;53.13;;;25.33;;
12597;SDS011;6364;53.590;9.956;2023-10-31T07:51:10;51.88;;;24.75;;
12597;SDS011;6364;53.590;9.956;2023-10-31T07:53:35;39.22;;;20.65;;
12597;SDS011;6364;53.590;9.956;2023-10-31T07:56:01;39.28;;;19.73;;
12597;SDS011;6364;53.590;9.956;2023-10-31T07:58:26;24.00;;;13.32;;
12597;SDS011;6364;53.590;9.956;2023-10-31T08:00:51;12.95;;;7.63;;
12597;SDS011;6364;53.590;9.956;2023-10-31T08:03:17;7.65;;;4.90;;
12597;SDS011;6364;53.590;9.956;2023-10-31T08:05:42;4.40;;;3.22;;
12597;SDS011;6364;53.590;9.956;2023-10-31T08:08:08;3.38;;;2.70;;
12597;SDS011;6364;53.590;9.956;2023-10-31T08:10:33;5.35;;;2.40;;
12597;SDS011;6364;53.590;9.956;2023-10-31T08:12:59;5.72;;;2.92;;
12597;SDS011;6364;53.590;9.956;2023-10-31T08:15:25;3.25;;;2.40;;
12597;SDS011;6364;53.590;9.956;2023-10-31T08:17:53;4.72;;;3.08;;
12597;SDS011;6364;53.590;9.956;2023-10-31T08:20:18;2.95;;;2.47;;
12597;SDS011;6364;53.590;9.956;2023-10-31T08:22:44;3.67;;;2.75;;
12597;SDS011;6364;53.590;9.956;2023-10-31T08:25:10;3.15;;;1.88;;
12597;SDS011;6364;53.590;9.956;2023-10-31T08:27:35;2.20;;;1.90;;
12597;SDS011;6364;53.590;9.956;2023-10-31T08:30:01;2.83;;;2.10;;
12597;SDS011;6364;53.590;9.956;2023-10-31T08:32:27;2.78;;;1.90;;
12597;SDS011;6364;53.590;9.956;2023-10-31T08:34:52;4.22;;;2.00;;
12597;SDS011;6364;53.590;9.956;2023-10-31T08:37:19;3.40;;;1.70;;
12597;SDS011;6364;53.590;9.956;2023-10-31T08:39:44;3.90;;;2.00;;
12597;SDS011;6364;53.590;9.956;2023-10-31T08:42:10;2.15;;;1.55;;
12597;SDS011;6364;53.590;9.956;2023-10-31T08:44:35;5.18;;;1.60;;
12597;SDS011;6364;53.590;9.956;2023-10-31T08:47:02;1.73;;;1.63;;
12597;SDS011;6364;53.590;9.956;2023-10-31T08:49:28;2.75;;;1.90;;
12597;SDS011;6364;53.590;9.956;2023-10-31T08:51:54;2.38;;;1.90;;
12597;SDS011;6364;53.590;9.956;2023-10-31T08:54:19;1.58;;;1.48;;
12597;SDS011;6364;53.590;9.956;2023-10-31T08:56:45;2.10;;;1.73;;
12597;SDS011;6364;53.590;9.956;2023-10-31T08:59:10;4.60;;;1.95;;
12597;SDS011;6364;53.590;9.956;2023-10-31T09:01:36;1.80;;;1.70;;
12597;SDS011;6364;53.590;9.956;2023-10-31T09:04:01;1.83;;;1.70;;
12597;SDS011;6364;53.590;9.956;2023-10-31T09:06:27;1.85;;;1.30;;
12597;SDS011;6364;53.590;9.956;2023-10-31T09:08:52;2.05;;;1.15;;
12597;SDS011;6364;53.590;9.956;2023-10-31T09:11:17;1.10;;;1.00;;
12597;SDS011;6364;53.590;9.956;2023-10-31T09:13:43;3.17;;;1.20;;
12597;SDS011;6364;53.590;9.956;2023-10-31T09:16:08;1.48;;;1.38;;
12597;SDS011;6364;53.590;9.956;2023-10-31T09:18:35;1.33;;;1.23;;
12597;SDS011;6364;53.590;9.956;2023-10-31T09:21:00;1.40;;;1.30;;
12597;SDS011;6364;53.590;9.956;2023-10-31T09:23:26;3.90;;;1.10;;
12597;SDS011;6364;53.590;9.956;2023-10-31T09:25:51;1.55;;;0.70;;
12597;SDS011;6364;53.590;9.956;2023-10-31T09:28:17;2.60;;;0.98;;
12597;SDS011;6364;53.590;9.956;2023-10-31T09:30:42;2.22;;;1.20;;
12597;SDS011;6364;53.590;9.956;2023-10-31T09:33:08;2.63;;;1.10;;
12597;SDS011;6364;53.590;9.956;2023-10-31T09:35:34;2.13;;;1.45;;
12597;SDS011;6364;53.590;9.956;2023-10-31T09:37:59;1.52;;;1.25;;
12597;SDS011;6364;53.590;9.956;2023-10-31T09:40:25;1.30;;;1.20;;
12597;SDS011;6364;53.590;9.956;2023-10-31T09:42:50;1.48;;;1.38;;
12597;SDS011;6364;53.590;9.956;2023-10-31T09:45:16;3.53;;;1.75;;
12597;SDS011;6364;53.590;9.956;2023-10-31T09:47:42;3.25;;;2.50;;
12597;SDS011;6364;53.590;9.956;2023-10-31T09:50:08;2.80;;;2.60;;
12597;SDS011;6364;53.590;9.956;2023-10-31T09:52:34;2.78;;;2.55;;
12597;SDS011;6364;53.590;9.956;2023-10-31T09:58:03;3.22;;;0.85;;
12597;SDS011;6364;53.590;9.956;2023-10-31T10:00:28;1.40;;;0.80;;
12597;SDS011;6364;53.590;9.956;2023-10-31T10:02:54;0.98;;;0.77;;
12597;SDS011;6364;53.590;9.956;2023-10-31T10:05:19;2.60;;;0.70;;
12597;SDS011;6364;53.590;9.956;2023-10-31T10:07:46;4.18;;;0.70;;
12597;SDS011;6364;53.590;9.956;2023-10-31T10:10:11;1.05;;;0.70;;
12597;SDS011;6364;53.590;9.956;2023-10-31T10:12:37;3.05;;;0.90;;
12597;SDS011;6364;53.590;9.956;2023-10-31T10:15:02;3.35;;;1.10;;
12597;SDS011;6364;53.590;9.956;2023-10-31T10:17:28;1.77;;;1.23;;
12597;SDS011;6364;53.590;9.956;2023-10-31T10:25:13;2.97;;;1.48;;
12597;SDS011;6364;53.590;9.956;2023-10-31T10:27:49;2.17;;;1.48;;
12597;SDS011;6364;53.590;9.956;2023-10-31T10:30:14;3.55;;;1.58;;
12597;SDS011;6364;53.590;9.956;2023-10-31T10:32:41;3.22;;;1.80;;
12597;SDS011;6364;53.590;9.956;2023-10-31T10:35:07;5.53;;;2.08;;
12597;SDS011;6364;53.590;9.956;2023-10-31T10:37:33;2.28;;;1.90;;
12597;SDS011;6364;53.590;9.956;2023-10-31T10:40:01;7.80;;;2.42;;
12597;SDS011;6364;53.590;9.956;2023-10-31T10:42:35;5.97;;;2.72;;
12597;SDS011;6364;53.590;9.956;2023-10-31T10:45:03;3.80;;;2.70;;
12597;SDS011;6364;53.590;9.956;2023-10-31T10:56:21;14.02;;;2.97;;
12597;SDS011;6364;53.590;9.956;2023-10-31T10:58:55;5.88;;;3.28;;
12597;SDS011;6364;53.590;9.956;2023-10-31T11:01:23;4.95;;;3.30;;
12597;SDS011;6364;53.590;9.956;2023-10-31T11:03:49;4.35;;;2.60;;
12597;SDS011;6364;53.590;9.956;2023-10-31T11:06:15;8.75;;;3.10;;
12597;SDS011;6364;53.590;9.956;2023-10-31T11:08:41;5.05;;;3.00;;
12597;SDS011;6364;53.590;9.956;2023-10-31T11:11:08;5.97;;;2.60;;
12597;SDS011;6364;53.590;9.956;2023-10-31T11:13:34;4.22;;;2.58;;
12597;SDS011;6364;53.590;9.956;2023-10-31T11:16:02;6.22;;;2.70;;
12597;SDS011;6364;53.590;9.956;2023-10-31T11:18:31;8.40;;;2.95;;
12597;SDS011;6364;53.590;9.956;2023-10-31T11:20:57;8.35;;;2.80;;
12597;SDS011;6364;53.590;9.956;2023-10-31T11:23:22;5.93;;;2.60;;
12597;SDS011;6364;53.590;9.956;2023-10-31T11:25:49;8.32;;;3.08;;
12597;SDS011;6364;53.590;9.956;2023-10-31T11:28:16;4.75;;;2.53;;
12597;SDS011;6364;53.590;9.956;2023-10-31T11:30:42;3.95;;;2.97;;
12597;SDS011;6364;53.590;9.956;2023-10-31T11:33:12;4.38;;;2.85;;
12597;SDS011;6364;53.590;9.956;2023-10-31T11:35:39;6.50;;;3.20;;
12597;SDS011;6364;53.590;9.956;2023-10-31T11:38:06;7.65;;;3.65;;
12597;SDS011;6364;53.590;9.956;2023-10-31T11:40:32;5.85;;;3.30;;
12597;SDS011;6364;53.590;9.956;2023-10-31T11:42:58;8.00;;;3.80;;
12597;SDS011;6364;53.590;9.956;2023-10-31T11:48:06;9.52;;;4.70;;
12597;SDS011;6364;53.590;9.956;2023-10-31T11:50:33;13.15;;;5.50;;
12597;SDS011;6364;53.590;9.956;2023-10-31T11:53:05;9.80;;;5.85;;
12597;SDS011;6364;53.590;9.956;2023-10-31T11:55:32;7.68;;;5.32;;
12597;SDS011;6364;53.590;9.956;2023-10-31T12:00:51;7.05;;;4.13;;
12597;SDS011;6364;53.590;9.956;2023-10-31T12:03:19;6.10;;;3.35;;
12597;SDS011;6364;53.590;9.956;2023-10-31T12:05:55;7.50;;;3.10;;
12597;SDS011;6364;53.590;9.956;2023-10-31T12:08:25;10.77;;;2.72;;
12597;SDS011;6364;53.590;9.956;2023-10-31T12:10:52;3.88;;;2.15;;
12597;SDS011;6364;53.590;9.956;2023-10-31T12:13:17;2.55;;;1.70;;
12597;SDS011;6364;53.590;9.956;2023-10-31T12:15:52;2.78;;;1.67;;
12597;SDS011;6364;53.590;9.956;2023-10-31T12:18:18;3.97;;;1.80;;
12597;SDS011;6364;53.590;9.956;2023-10-31T12:21:02;4.18;;;1.65;;
12597;SDS011;6364;53.590;9.956;2023-10-31T12:23:28;2.85;;;1.48;;
12597;SDS011;6364;53.590;9.956;2023-10-31T12:25:59;3.10;;;1.10;;
12597;SDS011;6364;53.590;9.956;2023-10-31T12:28:25;3.85;;;1.52;;
12597;SDS011;6364;53.590;9.956;2023-10-31T12:30:52;1.77;;;1.00;;
12597;SDS011;6364;53.590;9.956;2023-10-31T12:33:24;3.08;;;1.35;;
12597;SDS011;6364;53.590;9.956;2023-10-31T12:35:58;1.35;;;0.90;;
12597;SDS011;6364;53.590;9.956;2023-10-31T12:38:24;2.45;;;0.80;;
12597;SDS011;6364;53.590;9.956;2023-10-31T12:40:50;1.17;;;1.00;;
12597;SDS011;6364;53.590;9.956;2023-10-31T12:43:16;1.80;;;0.75;;
12597;SDS011;6364;53.590;9.956;2023-10-31T12:45:41;3.65;;;1.10;;
12597;SDS011;6364;53.590;9.956;2023-10-31T12:48:08;6.20;;;1.23;;
12597;SDS011;6364;53.590;9.956;2023-10-31T12:50:35;2.50;;;1.33;;
12597;SDS011;6364;53.590;9.956;2023-10-31T12:53:08;2.63;;;1.23;;
12597;SDS011;6364;53.590;9.956;2023-10-31T12:55:40;2.60;;;1.20;;
12597;SDS011;6364;53.590;9.956;2023-10-31T12:58:06;2.50;;;1.15;;
12597;SDS011;6364;53.590;9.956;2023-10-31T13:00:35;4.47;;;1.42;;
12597;SDS011;6364;53.590;9.956;2023-10-31T13:05:27;4.93;;;0.90;;
12597;SDS011;6364;53.590;9.956;2023-10-31T13:07:54;1.13;;;0.70;;
12597;SDS011;6364;53.590;9.956;2023-10-31T13:10:21;1.90;;;0.73;;
12597;SDS011;6364;53.590;9.956;2023-10-31T13:12:51;4.80;;;0.93;;
12597;SDS011;6364;53.590;9.956;2023-10-31T13:15:18;2.03;;;0.90;;
12597;SDS011;6364;53.590;9.956;2023-10-31T13:17:45;2.20;;;1.05;;
12597;SDS011;6364;53.590;9.956;2023-10-31T13:20:11;2.40;;;0.80;;
12597;SDS011;6364;53.590;9.956;2023-10-31T13:22:39;2.03;;;1.05;;
12597;SDS011;6364;53.590;9.956;2023-10-31T13:25:05;1.73;;;1.00;;
12597;SDS011;6364;53.590;9.956;2023-10-31T13:27:33;1.83;;;0.90;;
12597;SDS011;6364;53.590;9.956;2023-10-31T13:30:00;3.55;;;1.17;;
12597;SDS011;6364;53.590;9.956;2023-10-31T13:32:28;2.50;;;1.50;;
12597;SDS011;6364;53.590;9.956;2023-10-31T13:34:54;7.05;;;2.08;;
12597;SDS011;6364;53.590;9.956;2023-10-31T13:37:19;4.95;;;2.00;;
12597;SDS011;6364;53.590;9.956;2023-10-31T13:39:45;3.60;;;2.30;;
12597;SDS011;6364;53.590;9.956;2023-10-31T13:42:11;3.83;;;2.33;;
12597;SDS011;6364;53.590;9.956;2023-10-31T13:44:36;2.35;;;2.15;;
12597;SDS011;6364;53.590;9.956;2023-10-31T13:47:02;4.40;;;2.10;;
12597;SDS011;6364;53.590;9.956;2023-10-31T13:49:28;2.38;;;2.08;;
12597;SDS011;6364;53.590;9.956;2023-10-31T13:51:53;3.38;;;2.08;;
12597;SDS011;6364;53.590;9.956;2023-10-31T13:54:19;4.30;;;2.00;;
12597;SDS011;6364;53.590;9.956;2023-10-31T13:56:45;2.78;;;1.55;;
12597;SDS011;6364;53.590;9.956;2023-10-31T13:59:11;2.40;;;1.90;;
12597;SDS011;6364;53.590;9.956;2023-10-31T14:01:36;2.95;;;2.50;;
12597;SDS011;6364;53.590;9.956;2023-10-31T14:04:02;5.20;;;2.70;;
12597;SDS011;6364;53.590;9.956;2023-10-31T14:06:27;4.15;;;2.40;;
12597;SDS011;6364;53.590;9.956;2023-10-31T14:08:55;2.30;;;2.05;;
12597;SDS011;6364;53.590;9.956;2023-10-31T14:11:21;3.10;;;2.15;;
12597;SDS011;6364;53.590;9.956;2023-10-31T14:13:47;2.97;;;2.40;;
12597;SDS011;6364;53.590;9.956;2023-10-31T14:16:12;5.20;;;2.65;;
12597;SDS011;6364;53.590;9.956;2023-10-31T14:18:38;4.00;;;2.45;;
12597;SDS011;6364;53.590;9.956;2023-10-31T14:21:04;2.75;;;2.20;;
12597;SDS011;6364;53.590;9.956;2023-10-31T14:23:29;2.83;;;2.00;;
12597;SDS011;6364;53.590;9.956;2023-10-31T14:25:55;5.38;;;2.35;;
12597;SDS011;6364;53.590;9.956;2023-10-31T14:28:21;3.95;;;1.98;;
12597;SDS011;6364;53.590;9.956;2023-10-31T14:30:46;5.97;;;2.20;;
12597;SDS011;6364;53.590;9.956;2023-10-31T14:33:12;4.70;;;2.65;;
12597;SDS011;6364;53.590;9.956;2023-10-31T14:35:38;3.75;;;2.30;;
12597;SDS011;6364;53.590;9.956;2023-10-31T14:38:04;3.08;;;1.80;;
12597;SDS011;6364;53.590;9.956;2023-10-31T14:40:29;5.50;;;1.80;;
12597;SDS011;6364;53.590;9.956;2023-10-31T14:42:55;3.03;;;1.90;;
12597;SDS011;6364;53.590;9.956;2023-10-31T14:45:20;3.15;;;1.80;;
12597;SDS011;6364;53.590;9.956;2023-10-31T14:47:46;3.05;;;2.10;;
12597;SDS011;6364;53.590;9.956;2023-10-31T14:50:11;5.03;;;2.58;;
12597;SDS011;6364;53.590;9.956;2023-10-31T14:52:36;2.78;;;2.38;;
12597;SDS011;6364;53.590;9.956;2023-10-31T14:55:02;7.47;;;2.70;;
12597;SDS011;6364;53.590;9.956;2023-10-31T14:57:28;6.35;;;2.47;;
12597;SDS011;6364;53.590;9.956;2023-10-31T14:59:53;6.85;;;3.22;;
12597;SDS011;6364;53.590;9.956;2023-10-31T15:02:22;10.15;;;3.67;;